Terminal Aerodrome Forecast
Issued by NWS

Home | Current Version | Previous Version | Graphics & Text | Print | Product List | Glossary On
Versions: 1 2 3 4 5 6 7 8 9 10 11 12 13 14 15 16 17 18 19 20 21 22 23 24 25 26 27
000
FTUS43 KLOT 251726
TAFDPA
TAF
KDPA 251726Z 2518/2618 29014G23KT P6SM -SN BKN025 OVC035
     FM252300 29012G18KT P6SM BKN035
     FM260200 28008KT P6SM SCT150
     FM260900 21007KT P6SM BKN090
     FM261400 20016G24KT P6SM BKN060
     FM261700 21018G28KT P6SM SCT060=

USA.gov is the U.S. government's official web portal to all federal, state and local government web resources and services.